sensor_id;sensor_type;location;lat;lon;timestamp;P1;durP1;ratioP1;P2;durP2;ratioP2
62463;SDS011;48512;48.552;9.380;2023-12-04T00:01:48;13.25;;;6.25;;
62463;SDS011;48512;48.552;9.380;2023-12-04T00:04:15;12.35;;;6.28;;
62463;SDS011;48512;48.552;9.380;2023-12-04T00:06:41;13.88;;;6.88;;
62463;SDS011;48512;48.552;9.380;2023-12-04T00:09:07;14.05;;;6.25;;
62463;SDS011;48512;48.552;9.380;2023-12-04T00:11:33;11.80;;;5.45;;
62463;SDS011;48512;48.552;9.380;2023-12-04T00:13:59;12.52;;;6.03;;
62463;SDS011;48512;48.552;9.380;2023-12-04T00:16:26;13.10;;;6.38;;
62463;SDS011;48512;48.552;9.380;2023-12-04T00:18:52;9.98;;;5.32;;
62463;SDS011;48512;48.552;9.380;2023-12-04T00:21:18;10.85;;;5.93;;
62463;SDS011;48512;48.552;9.380;2023-12-04T00:23:44;11.25;;;6.10;;
62463;SDS011;48512;48.552;9.380;2023-12-04T00:26:11;10.63;;;5.35;;
62463;SDS011;48512;48.552;9.380;2023-12-04T00:28:38;11.05;;;5.60;;
62463;SDS011;48512;48.552;9.380;2023-12-04T00:31:05;10.82;;;5.30;;
62463;SDS011;48512;48.552;9.380;2023-12-04T00:33:31;9.55;;;5.30;;
62463;SDS011;48512;48.552;9.380;2023-12-04T00:35:57;11.27;;;5.18;;
62463;SDS011;48512;48.552;9.380;2023-12-04T00:38:24;11.07;;;5.53;;
62463;SDS011;48512;48.552;9.380;2023-12-04T00:40:50;9.50;;;4.60;;
62463;SDS011;48512;48.552;9.380;2023-12-04T00:43:16;8.90;;;4.93;;
62463;SDS011;48512;48.552;9.380;2023-12-04T00:45:42;10.10;;;4.60;;
62463;SDS011;48512;48.552;9.380;2023-12-04T00:48:08;9.50;;;4.93;;
62463;SDS011;48512;48.552;9.380;2023-12-04T00:50:34;7.88;;;4.28;;
62463;SDS011;48512;48.552;9.380;2023-12-04T00:53:00;8.13;;;4.70;;
62463;SDS011;48512;48.552;9.380;2023-12-04T00:55:27;7.50;;;3.95;;
62463;SDS011;48512;48.552;9.380;2023-12-04T00:57:53;9.43;;;4.43;;
62463;SDS011;48512;48.552;9.380;2023-12-04T01:00:19;9.18;;;4.88;;
62463;SDS011;48512;48.552;9.380;2023-12-04T01:02:45;7.65;;;4.20;;
62463;SDS011;48512;48.552;9.380;2023-12-04T01:05:11;10.05;;;4.60;;
62463;SDS011;48512;48.552;9.380;2023-12-04T01:07:37;7.68;;;4.28;;
62463;SDS011;48512;48.552;9.380;2023-12-04T01:10:04;9.00;;;4.20;;
62463;SDS011;48512;48.552;9.380;2023-12-04T01:12:30;7.28;;;3.65;;
62463;SDS011;48512;48.552;9.380;2023-12-04T01:14:56;6.72;;;3.50;;
62463;SDS011;48512;48.552;9.380;2023-12-04T01:17:23;6.85;;;3.33;;
62463;SDS011;48512;48.552;9.380;2023-12-04T01:19:49;6.32;;;3.28;;
62463;SDS011;48512;48.552;9.380;2023-12-04T01:22:15;8.52;;;3.90;;
62463;SDS011;48512;48.552;9.380;2023-12-04T01:24:41;6.15;;;3.45;;
62463;SDS011;48512;48.552;9.380;2023-12-04T01:27:08;7.22;;;3.53;;
62463;SDS011;48512;48.552;9.380;2023-12-04T01:29:34;5.85;;;3.22;;
62463;SDS011;48512;48.552;9.380;2023-12-04T01:32:00;5.95;;;3.50;;
62463;SDS011;48512;48.552;9.380;2023-12-04T01:34:26;5.25;;;3.22;;
62463;SDS011;48512;48.552;9.380;2023-12-04T01:36:52;5.38;;;2.85;;
62463;SDS011;48512;48.552;9.380;2023-12-04T01:39:18;6.47;;;3.17;;
62463;SDS011;48512;48.552;9.380;2023-12-04T01:41:46;7.00;;;3.20;;
62463;SDS011;48512;48.552;9.380;2023-12-04T01:44:12;4.28;;;2.75;;
62463;SDS011;48512;48.552;9.380;2023-12-04T01:46:38;9.52;;;5.05;;
62463;SDS011;48512;48.552;9.380;2023-12-04T01:49:04;31.10;;;13.73;;
62463;SDS011;48512;48.552;9.380;2023-12-04T01:51:31;27.00;;;13.05;;
62463;SDS011;48512;48.552;9.380;2023-12-04T01:53:58;40.78;;;17.05;;
62463;SDS011;48512;48.552;9.380;2023-12-04T01:56:26;38.97;;;17.85;;
62463;SDS011;48512;48.552;9.380;2023-12-04T01:58:52;33.28;;;14.95;;
62463;SDS011;48512;48.552;9.380;2023-12-04T02:01:19;35.00;;;15.98;;
62463;SDS011;48512;48.552;9.380;2023-12-04T02:03:46;32.55;;;15.80;;
62463;SDS011;48512;48.552;9.380;2023-12-04T02:06:12;39.72;;;17.27;;
62463;SDS011;48512;48.552;9.380;2023-12-04T02:08:40;36.05;;;16.58;;
62463;SDS011;48512;48.552;9.380;2023-12-04T02:11:06;39.75;;;17.30;;
62463;SDS011;48512;48.552;9.380;2023-12-04T02:13:32;39.70;;;17.23;;
62463;SDS011;48512;48.552;9.380;2023-12-04T02:16:00;43.13;;;19.40;;
62463;SDS011;48512;48.552;9.380;2023-12-04T02:18:33;39.47;;;19.60;;
62463;SDS011;48512;48.552;9.380;2023-12-04T02:21:00;45.25;;;18.90;;
62463;SDS011;48512;48.552;9.380;2023-12-04T02:23:27;38.30;;;17.02;;
62463;SDS011;48512;48.552;9.380;2023-12-04T02:25:58;20.45;;;10.00;;
62463;SDS011;48512;48.552;9.380;2023-12-04T02:28:27;16.13;;;7.18;;
62463;SDS011;48512;48.552;9.380;2023-12-04T02:30:57;6.78;;;3.50;;
62463;SDS011;48512;48.552;9.380;2023-12-04T02:33:25;5.55;;;3.17;;
62463;SDS011;48512;48.552;9.380;2023-12-04T02:35:53;8.02;;;4.40;;
62463;SDS011;48512;48.552;9.380;2023-12-04T02:38:21;7.72;;;3.28;;
62463;SDS011;48512;48.552;9.380;2023-12-04T02:40:47;5.32;;;3.03;;
62463;SDS011;48512;48.552;9.380;2023-12-04T02:43:13;5.75;;;3.00;;
62463;SDS011;48512;48.552;9.380;2023-12-04T02:45:40;6.38;;;3.10;;
62463;SDS011;48512;48.552;9.380;2023-12-04T02:48:06;5.60;;;3.10;;
62463;SDS011;48512;48.552;9.380;2023-12-04T02:50:33;4.90;;;2.80;;
62463;SDS011;48512;48.552;9.380;2023-12-04T02:52:59;5.85;;;2.90;;
62463;SDS011;48512;48.552;9.380;2023-12-04T02:55:25;4.75;;;2.60;;
62463;SDS011;48512;48.552;9.380;2023-12-04T02:57:51;5.55;;;2.70;;
62463;SDS011;48512;48.552;9.380;2023-12-04T03:00:17;4.35;;;2.78;;
62463;SDS011;48512;48.552;9.380;2023-12-04T03:02:43;7.88;;;3.03;;
62463;SDS011;48512;48.552;9.380;2023-12-04T03:05:09;6.57;;;3.22;;
62463;SDS011;48512;48.552;9.380;2023-12-04T03:07:36;4.78;;;2.78;;
62463;SDS011;48512;48.552;9.380;2023-12-04T03:10:02;6.20;;;3.13;;
62463;SDS011;48512;48.552;9.380;2023-12-04T03:12:29;5.43;;;2.67;;
62463;SDS011;48512;48.552;9.380;2023-12-04T03:14:55;5.03;;;2.70;;
62463;SDS011;48512;48.552;9.380;2023-12-04T03:17:21;5.63;;;3.03;;
62463;SDS011;48512;48.552;9.380;2023-12-04T03:19:47;4.70;;;2.85;;
62463;SDS011;48512;48.552;9.380;2023-12-04T03:22:13;4.13;;;2.53;;
62463;SDS011;48512;48.552;9.380;2023-12-04T03:24:39;4.20;;;2.90;;
62463;SDS011;48512;48.552;9.380;2023-12-04T03:27:05;4.50;;;2.72;;
62463;SDS011;48512;48.552;9.380;2023-12-04T03:29:32;5.88;;;3.03;;
62463;SDS011;48512;48.552;9.380;2023-12-04T03:31:58;5.30;;;2.55;;
62463;SDS011;48512;48.552;9.380;2023-12-04T03:34:24;5.30;;;2.53;;
62463;SDS011;48512;48.552;9.380;2023-12-04T03:36:50;4.35;;;2.70;;
62463;SDS011;48512;48.552;9.380;2023-12-04T03:39:16;4.53;;;2.55;;
62463;SDS011;48512;48.552;9.380;2023-12-04T03:41:42;5.35;;;2.65;;
62463;SDS011;48512;48.552;9.380;2023-12-04T03:44:08;4.88;;;2.97;;
62463;SDS011;48512;48.552;9.380;2023-12-04T03:46:34;5.80;;;2.55;;
62463;SDS011;48512;48.552;9.380;2023-12-04T03:49:00;6.88;;;2.75;;
62463;SDS011;48512;48.552;9.380;2023-12-04T03:51:26;4.72;;;3.00;;
62463;SDS011;48512;48.552;9.380;2023-12-04T03:53:52;6.00;;;3.20;;
62463;SDS011;48512;48.552;9.380;2023-12-04T03:56:18;6.18;;;3.05;;
62463;SDS011;48512;48.552;9.380;2023-12-04T03:58:44;5.53;;;2.67;;
62463;SDS011;48512;48.552;9.380;2023-12-04T04:01:11;5.97;;;2.92;;
62463;SDS011;48512;48.552;9.380;2023-12-04T04:03:37;4.50;;;2.90;;
62463;SDS011;48512;48.552;9.380;2023-12-04T04:06:03;6.30;;;3.05;;
62463;SDS011;48512;48.552;9.380;2023-12-04T04:08:29;4.45;;;2.85;;
62463;SDS011;48512;48.552;9.380;2023-12-04T04:10:55;5.10;;;2.60;;
62463;SDS011;48512;48.552;9.380;2023-12-04T04:13:21;4.50;;;2.90;;
62463;SDS011;48512;48.552;9.380;2023-12-04T04:15:47;6.57;;;3.20;;
62463;SDS011;48512;48.552;9.380;2023-12-04T04:18:13;13.57;;;6.47;;
62463;SDS011;48512;48.552;9.380;2023-12-04T04:20:39;15.32;;;8.18;;
62463;SDS011;48512;48.552;9.380;2023-12-04T04:23:06;23.45;;;11.52;;
62463;SDS011;48512;48.552;9.380;2023-12-04T04:25:32;24.20;;;11.93;;
62463;SDS011;48512;48.552;9.380;2023-12-04T04:27:58;25.40;;;12.60;;
62463;SDS011;48512;48.552;9.380;2023-12-04T04:30:24;31.05;;;14.07;;
62463;SDS011;48512;48.552;9.380;2023-12-04T04:32:50;33.70;;;13.73;;
62463;SDS011;48512;48.552;9.380;2023-12-04T04:35:16;28.80;;;13.70;;
62463;SDS011;48512;48.552;9.380;2023-12-04T04:37:42;31.52;;;14.55;;
62463;SDS011;48512;48.552;9.380;2023-12-04T04:40:08;32.40;;;15.00;;
62463;SDS011;48512;48.552;9.380;2023-12-04T04:42:34;29.67;;;13.60;;
62463;SDS011;48512;48.552;9.380;2023-12-04T04:45:01;40.75;;;18.13;;
62463;SDS011;48512;48.552;9.380;2023-12-04T04:47:27;39.22;;;18.13;;
62463;SDS011;48512;48.552;9.380;2023-12-04T04:49:53;34.83;;;16.73;;
62463;SDS011;48512;48.552;9.380;2023-12-04T04:52:19;32.80;;;15.05;;
62463;SDS011;48512;48.552;9.380;2023-12-04T04:54:45;33.25;;;15.63;;
62463;SDS011;48512;48.552;9.380;2023-12-04T04:57:11;37.70;;;16.20;;
62463;SDS011;48512;48.552;9.380;2023-12-04T04:59:38;35.42;;;16.13;;
62463;SDS011;48512;48.552;9.380;2023-12-04T05:02:04;29.77;;;14.85;;
62463;SDS011;48512;48.552;9.380;2023-12-04T05:04:30;33.92;;;15.25;;
62463;SDS011;48512;48.552;9.380;2023-12-04T05:06:56;33.20;;;16.05;;
62463;SDS011;48512;48.552;9.380;2023-12-04T05:09:22;41.72;;;17.17;;
62463;SDS011;48512;48.552;9.380;2023-12-04T05:11:48;36.15;;;16.40;;
62463;SDS011;48512;48.552;9.380;2023-12-04T05:14:15;37.00;;;16.20;;
62463;SDS011;48512;48.552;9.380;2023-12-04T05:16:41;37.25;;;16.38;;
62463;SDS011;48512;48.552;9.380;2023-12-04T05:19:07;41.38;;;18.45;;
62463;SDS011;48512;48.552;9.380;2023-12-04T05:21:34;37.72;;;16.65;;
62463;SDS011;48512;48.552;9.380;2023-12-04T05:24:00;37.90;;;18.02;;
62463;SDS011;48512;48.552;9.380;2023-12-04T05:26:26;39.80;;;17.52;;
62463;SDS011;48512;48.552;9.380;2023-12-04T05:28:52;37.63;;;18.42;;
62463;SDS011;48512;48.552;9.380;2023-12-04T05:31:18;39.38;;;18.95;;
62463;SDS011;48512;48.552;9.380;2023-12-04T05:33:45;44.35;;;19.92;;
62463;SDS011;48512;48.552;9.380;2023-12-04T05:36:11;36.05;;;16.98;;
62463;SDS011;48512;48.552;9.380;2023-12-04T05:38:37;35.13;;;17.15;;
62463;SDS011;48512;48.552;9.380;2023-12-04T05:41:03;32.78;;;15.52;;
62463;SDS011;48512;48.552;9.380;2023-12-04T05:43:30;42.67;;;19.75;;
62463;SDS011;48512;48.552;9.380;2023-12-04T05:45:56;46.90;;;20.67;;
62463;SDS011;48512;48.552;9.380;2023-12-04T05:48:22;46.58;;;21.30;;
62463;SDS011;48512;48.552;9.380;2023-12-04T05:50:48;50.42;;;20.20;;
62463;SDS011;48512;48.552;9.380;2023-12-04T05:53:14;59.35;;;21.77;;
62463;SDS011;48512;48.552;9.380;2023-12-04T05:55:40;142.60;;;35.65;;
62463;SDS011;48512;48.552;9.380;2023-12-04T05:58:07;86.60;;;25.35;;
62463;SDS011;48512;48.552;9.380;2023-12-04T06:00:33;83.65;;;22.75;;
62463;SDS011;48512;48.552;9.380;2023-12-04T06:02:59;54.85;;;19.08;;
62463;SDS011;48512;48.552;9.380;2023-12-04T06:05:25;40.38;;;15.43;;
62463;SDS011;48512;48.552;9.380;2023-12-04T06:07:51;38.58;;;15.73;;
62463;SDS011;48512;48.552;9.380;2023-12-04T06:10:17;58.60;;;22.98;;
62463;SDS011;48512;48.552;9.380;2023-12-04T06:12:44;40.92;;;17.65;;
62463;SDS011;48512;48.552;9.380;2023-12-04T06:15:10;27.30;;;12.73;;
62463;SDS011;48512;48.552;9.380;2023-12-04T06:17:36;23.50;;;10.57;;
62463;SDS011;48512;48.552;9.380;2023-12-04T06:20:02;13.70;;;6.97;;
62463;SDS011;48512;48.552;9.380;2023-12-04T06:22:28;12.85;;;6.13;;
62463;SDS011;48512;48.552;9.380;2023-12-04T06:24:55;17.55;;;6.85;;
62463;SDS011;48512;48.552;9.380;2023-12-04T06:27:21;16.83;;;7.20;;
62463;SDS011;48512;48.552;9.380;2023-12-04T06:29:48;10.60;;;5.38;;
62463;SDS011;48512;48.552;9.380;2023-12-04T06:32:14;12.38;;;5.93;;
62463;SDS011;48512;48.552;9.380;2023-12-04T06:34:41;11.52;;;5.75;;
62463;SDS011;48512;48.552;9.380;2023-12-04T06:37:11;14.63;;;6.22;;
62463;SDS011;48512;48.552;9.380;2023-12-04T06:39:39;11.73;;;6.20;;
62463;SDS011;48512;48.552;9.380;2023-12-04T06:42:08;11.50;;;5.45;;
62463;SDS011;48512;48.552;9.380;2023-12-04T06:44:36;12.55;;;5.97;;
62463;SDS011;48512;48.552;9.380;2023-12-04T06:47:03;12.52;;;6.47;;
62463;SDS011;48512;48.552;9.380;2023-12-04T06:49:30;12.50;;;6.07;;
62463;SDS011;48512;48.552;9.380;2023-12-04T06:51:58;12.32;;;6.15;;
62463;SDS011;48512;48.552;9.380;2023-12-04T06:54:25;12.90;;;6.95;;
62463;SDS011;48512;48.552;9.380;2023-12-04T06:56:51;10.73;;;5.57;;
62463;SDS011;48512;48.552;9.380;2023-12-04T06:59:17;11.32;;;6.00;;
62463;SDS011;48512;48.552;9.380;2023-12-04T07:01:44;12.73;;;6.13;;
62463;SDS011;48512;48.552;9.380;2023-12-04T07:04:10;11.05;;;6.32;;
62463;SDS011;48512;48.552;9.380;2023-12-04T07:06:37;12.32;;;6.15;;
62463;SDS011;48512;48.552;9.380;2023-12-04T07:09:04;12.32;;;5.57;;
62463;SDS011;48512;48.552;9.380;2023-12-04T07:11:30;13.75;;;6.50;;
62463;SDS011;48512;48.552;9.380;2023-12-04T07:13:56;12.65;;;6.03;;
62463;SDS011;48512;48.552;9.380;2023-12-04T07:16:23;10.90;;;5.60;;
62463;SDS011;48512;48.552;9.380;2023-12-04T07:18:49;10.00;;;5.10;;
62463;SDS011;48512;48.552;9.380;2023-12-04T07:21:15;13.65;;;6.13;;
62463;SDS011;48512;48.552;9.380;2023-12-04T07:23:41;9.90;;;5.25;;
62463;SDS011;48512;48.552;9.380;2023-12-04T07:26:07;11.77;;;5.63;;
62463;SDS011;48512;48.552;9.380;2023-12-04T07:28:34;12.88;;;5.93;;
62463;SDS011;48512;48.552;9.380;2023-12-04T07:31:00;13.38;;;5.53;;
62463;SDS011;48512;48.552;9.380;2023-12-04T07:33:29;11.93;;;6.45;;
62463;SDS011;48512;48.552;9.380;2023-12-04T07:35:55;12.30;;;6.15;;
62463;SDS011;48512;48.552;9.380;2023-12-04T07:38:24;12.57;;;5.90;;
62463;SDS011;48512;48.552;9.380;2023-12-04T07:40:51;12.45;;;5.63;;
62463;SDS011;48512;48.552;9.380;2023-12-04T07:43:17;22.08;;;9.35;;
62463;SDS011;48512;48.552;9.380;2023-12-04T07:45:43;24.83;;;9.32;;
62463;SDS011;48512;48.552;9.380;2023-12-04T07:48:09;26.23;;;12.45;;
62463;SDS011;48512;48.552;9.380;2023-12-04T07:50:35;36.10;;;16.30;;
62463;SDS011;48512;48.552;9.380;2023-12-04T07:53:03;39.55;;;17.95;;
62463;SDS011;48512;48.552;9.380;2023-12-04T07:55:31;43.10;;;18.92;;
62463;SDS011;48512;48.552;9.380;2023-12-04T07:57:57;48.47;;;21.20;;
62463;SDS011;48512;48.552;9.380;2023-12-04T08:00:23;45.63;;;20.92;;
62463;SDS011;48512;48.552;9.380;2023-12-04T08:02:51;46.03;;;22.27;;
62463;SDS011;48512;48.552;9.380;2023-12-04T08:05:17;45.78;;;22.88;;
62463;SDS011;48512;48.552;9.380;2023-12-04T08:07:43;38.30;;;18.25;;
62463;SDS011;48512;48.552;9.380;2023-12-04T08:10:10;37.63;;;19.05;;
62463;SDS011;48512;48.552;9.380;2023-12-04T08:12:36;39.17;;;17.30;;
62463;SDS011;48512;48.552;9.380;2023-12-04T08:15:03;37.03;;;18.05;;
62463;SDS011;48512;48.552;9.380;2023-12-04T08:17:32;34.22;;;17.85;;
62463;SDS011;48512;48.552;9.380;2023-12-04T08:19:58;34.47;;;16.95;;
62463;SDS011;48512;48.552;9.380;2023-12-04T08:22:25;37.47;;;18.48;;
62463;SDS011;48512;48.552;9.380;2023-12-04T08:24:51;44.67;;;21.30;;
62463;SDS011;48512;48.552;9.380;2023-12-04T08:27:18;39.30;;;19.35;;
62463;SDS011;48512;48.552;9.380;2023-12-04T08:29:44;40.55;;;19.10;;
62463;SDS011;48512;48.552;9.380;2023-12-04T08:32:10;38.17;;;17.20;;
62463;SDS011;48512;48.552;9.380;2023-12-04T08:34:36;31.02;;;15.77;;
62463;SDS011;48512;48.552;9.380;2023-12-04T08:37:02;36.67;;;16.52;;
62463;SDS011;48512;48.552;9.380;2023-12-04T08:39:29;35.97;;;16.45;;
62463;SDS011;48512;48.552;9.380;2023-12-04T08:41:55;30.52;;;15.35;;
62463;SDS011;48512;48.552;9.380;2023-12-04T08:44:21;36.17;;;15.98;;
62463;SDS011;48512;48.552;9.380;2023-12-04T08:46:47;37.63;;;17.65;;
62463;SDS011;48512;48.552;9.380;2023-12-04T08:49:13;36.95;;;17.50;;
62463;SDS011;48512;48.552;9.380;2023-12-04T08:51:39;36.20;;;16.95;;
62463;SDS011;48512;48.552;9.380;2023-12-04T08:54:06;39.53;;;19.10;;
62463;SDS011;48512;48.552;9.380;2023-12-04T08:56:33;39.88;;;19.15;;
62463;SDS011;48512;48.552;9.380;2023-12-04T08:58:59;36.65;;;18.55;;
62463;SDS011;48512;48.552;9.380;2023-12-04T09:01:25;36.58;;;18.42;;
62463;SDS011;48512;48.552;9.380;2023-12-04T09:03:51;36.88;;;18.65;;
62463;SDS011;48512;48.552;9.380;2023-12-04T09:06:18;41.33;;;20.60;;
62463;SDS011;48512;48.552;9.380;2023-12-04T09:08:44;36.38;;;17.60;;
62463;SDS011;48512;48.552;9.380;2023-12-04T09:11:10;57.30;;;23.80;;
62463;SDS011;48512;48.552;9.380;2023-12-04T09:13:36;76.45;;;27.77;;
62463;SDS011;48512;48.552;9.380;2023-12-04T09:16:04;50.60;;;21.67;;
62463;SDS011;48512;48.552;9.380;2023-12-04T09:18:30;43.38;;;19.02;;
62463;SDS011;48512;48.552;9.380;2023-12-04T09:20:57;92.55;;;40.28;;
62463;SDS011;48512;48.552;9.380;2023-12-04T09:23:23;56.78;;;27.63;;
62463;SDS011;48512;48.552;9.380;2023-12-04T09:25:49;64.15;;;29.92;;
62463;SDS011;48512;48.552;9.380;2023-12-04T09:28:15;76.63;;;34.63;;
62463;SDS011;48512;48.552;9.380;2023-12-04T09:30:42;71.53;;;27.60;;
62463;SDS011;48512;48.552;9.380;2023-12-04T09:33:08;41.40;;;18.58;;
62463;SDS011;48512;48.552;9.380;2023-12-04T09:35:35;34.10;;;16.65;;
62463;SDS011;48512;48.552;9.380;2023-12-04T09:38:01;39.63;;;18.70;;
62463;SDS011;48512;48.552;9.380;2023-12-04T09:40:27;39.03;;;18.48;;
62463;SDS011;48512;48.552;9.380;2023-12-04T09:42:53;36.20;;;18.75;;
62463;SDS011;48512;48.552;9.380;2023-12-04T09:45:19;37.88;;;18.58;;
62463;SDS011;48512;48.552;9.380;2023-12-04T09:47:47;48.17;;;21.98;;
62463;SDS011;48512;48.552;9.380;2023-12-04T09:50:14;51.10;;;23.05;;
62463;SDS011;48512;48.552;9.380;2023-12-04T09:52:48;43.88;;;21.35;;
62463;SDS011;48512;48.552;9.380;2023-12-04T09:55:15;55.47;;;24.23;;
62463;SDS011;48512;48.552;9.380;2023-12-04T09:57:42;52.50;;;25.70;;
62463;SDS011;48512;48.552;9.380;2023-12-04T10:00:09;44.15;;;22.15;;
62463;SDS011;48512;48.552;9.380;2023-12-04T10:02:40;40.80;;;18.85;;
62463;SDS011;48512;48.552;9.380;2023-12-04T10:05:09;54.97;;;23.05;;
62463;SDS011;48512;48.552;9.380;2023-12-04T10:07:36;45.78;;;18.95;;
62463;SDS011;48512;48.552;9.380;2023-12-04T10:10:02;73.45;;;27.23;;
62463;SDS011;48512;48.552;9.380;2023-12-04T10:12:33;105.00;;;36.85;;
62463;SDS011;48512;48.552;9.380;2023-12-04T10:15:07;85.32;;;29.75;;
62463;SDS011;48512;48.552;9.380;2023-12-04T10:17:36;51.65;;;19.70;;
62463;SDS011;48512;48.552;9.380;2023-12-04T10:20:04;42.28;;;19.17;;
62463;SDS011;48512;48.552;9.380;2023-12-04T10:22:59;55.95;;;22.30;;
62463;SDS011;48512;48.552;9.380;2023-12-04T10:25:26;109.00;;;35.53;;
62463;SDS011;48512;48.552;9.380;2023-12-04T10:28:06;194.18;;;55.78;;
62463;SDS011;48512;48.552;9.380;2023-12-04T10:30:34;162.20;;;48.03;;
62463;SDS011;48512;48.552;9.380;2023-12-04T10:33:01;94.45;;;33.83;;
62463;SDS011;48512;48.552;9.380;2023-12-04T10:35:32;50.40;;;21.30;;
62463;SDS011;48512;48.552;9.380;2023-12-04T10:38:03;116.63;;;37.95;;
62463;SDS011;48512;48.552;9.380;2023-12-04T10:40:31;142.13;;;44.95;;
62463;SDS011;48512;48.552;9.380;2023-12-04T10:43:09;91.22;;;31.63;;
62463;SDS011;48512;48.552;9.380;2023-12-04T10:45:36;181.35;;;55.85;;
62463;SDS011;48512;48.552;9.380;2023-12-04T10:48:04;38.90;;;19.85;;
62463;SDS011;48512;48.552;9.380;2023-12-04T10:50:34;75.72;;;28.17;;
62463;SDS011;48512;48.552;9.380;2023-12-04T10:53:01;48.80;;;23.35;;
62463;SDS011;48512;48.552;9.380;2023-12-04T10:55:33;37.47;;;19.65;;
62463;SDS011;48512;48.552;9.380;2023-12-04T10:58:01;44.53;;;20.38;;
62463;SDS011;48512;48.552;9.380;2023-12-04T11:00:30;41.88;;;20.13;;
62463;SDS011;48512;48.552;9.380;2023-12-04T11:03:02;45.72;;;20.45;;
62463;SDS011;48512;48.552;9.380;2023-12-04T11:05:31;93.25;;;34.65;;
62463;SDS011;48512;48.552;9.380;2023-12-04T11:08:00;66.50;;;26.73;;
62463;SDS011;48512;48.552;9.380;2023-12-04T11:10:28;108.32;;;41.97;;
62463;SDS011;48512;48.552;9.380;2023-12-04T11:13:06;49.50;;;21.77;;
62463;SDS011;48512;48.552;9.380;2023-12-04T11:15:41;58.10;;;26.35;;
62463;SDS011;48512;48.552;9.380;2023-12-04T11:18:13;39.33;;;20.73;;
62463;SDS011;48512;48.552;9.380;2023-12-04T11:20:42;44.28;;;21.23;;
62463;SDS011;48512;48.552;9.380;2023-12-04T11:23:13;43.65;;;20.55;;
62463;SDS011;48512;48.552;9.380;2023-12-04T11:25:41;46.05;;;21.15;;
62463;SDS011;48512;48.552;9.380;2023-12-04T11:28:09;43.40;;;20.75;;
62463;SDS011;48512;48.552;9.380;2023-12-04T11:30:36;69.88;;;29.00;;
62463;SDS011;48512;48.552;9.380;2023-12-04T11:33:04;61.15;;;25.85;;
62463;SDS011;48512;48.552;9.380;2023-12-04T11:35:30;50.80;;;22.13;;
62463;SDS011;48512;48.552;9.380;2023-12-04T11:37:59;47.55;;;22.70;;
62463;SDS011;48512;48.552;9.380;2023-12-04T11:40:25;55.20;;;25.52;;
62463;SDS011;48512;48.552;9.380;2023-12-04T11:42:55;53.08;;;24.35;;
62463;SDS011;48512;48.552;9.380;2023-12-04T11:45:22;55.35;;;24.95;;
62463;SDS011;48512;48.552;9.380;2023-12-04T11:47:48;83.63;;;34.50;;
62463;SDS011;48512;48.552;9.380;2023-12-04T11:50:19;94.40;;;39.53;;
62463;SDS011;48512;48.552;9.380;2023-12-04T11:52:46;65.97;;;29.00;;
62463;SDS011;48512;48.552;9.380;2023-12-04T11:55:15;61.42;;;27.45;;
62463;SDS011;48512;48.552;9.380;2023-12-04T11:57:42;59.40;;;28.27;;
62463;SDS011;48512;48.552;9.380;2023-12-04T12:00:09;48.60;;;25.15;;
62463;SDS011;48512;48.552;9.380;2023-12-04T12:05:15;49.67;;;24.90;;
62463;SDS011;48512;48.552;9.380;2023-12-04T12:07:42;43.65;;;21.80;;
62463;SDS011;48512;48.552;9.380;2023-12-04T12:10:08;39.83;;;19.75;;
62463;SDS011;48512;48.552;9.380;2023-12-04T12:12:36;40.13;;;20.20;;
62463;SDS011;48512;48.552;9.380;2023-12-04T12:15:02;40.33;;;19.48;;
62463;SDS011;48512;48.552;9.380;2023-12-04T12:17:29;69.57;;;28.85;;
62463;SDS011;48512;48.552;9.380;2023-12-04T12:19:56;204.40;;;56.47;;
62463;SDS011;48512;48.552;9.380;2023-12-04T12:22:25;100.45;;;32.90;;
62463;SDS011;48512;48.552;9.380;2023-12-04T12:24:51;41.42;;;19.85;;
62463;SDS011;48512;48.552;9.380;2023-12-04T12:27:17;32.88;;;17.58;;
62463;SDS011;48512;48.552;9.380;2023-12-04T12:29:44;37.17;;;19.00;;
62463;SDS011;48512;48.552;9.380;2023-12-04T12:32:10;36.92;;;19.75;;
62463;SDS011;48512;48.552;9.380;2023-12-04T12:34:36;40.67;;;20.65;;
62463;SDS011;48512;48.552;9.380;2023-12-04T12:37:03;39.25;;;20.83;;
62463;SDS011;48512;48.552;9.380;2023-12-04T12:39:29;41.53;;;20.13;;
62463;SDS011;48512;48.552;9.380;2023-12-04T12:41:56;86.68;;;31.13;;
62463;SDS011;48512;48.552;9.380;2023-12-04T12:44:22;87.50;;;29.98;;
62463;SDS011;48512;48.552;9.380;2023-12-04T12:46:48;431.67;;;95.95;;
62463;SDS011;48512;48.552;9.380;2023-12-04T12:49:18;134.27;;;40.13;;
62463;SDS011;48512;48.552;9.380;2023-12-04T12:51:47;54.40;;;24.90;;
62463;SDS011;48512;48.552;9.380;2023-12-04T12:54:14;253.13;;;64.90;;
62463;SDS011;48512;48.552;9.380;2023-12-04T12:56:40;68.47;;;29.35;;
62463;SDS011;48512;48.552;9.380;2023-12-04T12:59:06;45.75;;;21.40;;
62463;SDS011;48512;48.552;9.380;2023-12-04T13:01:33;222.40;;;62.45;;
62463;SDS011;48512;48.552;9.380;2023-12-04T13:03:59;61.95;;;29.42;;
62463;SDS011;48512;48.552;9.380;2023-12-04T13:06:26;62.28;;;28.05;;
62463;SDS011;48512;48.552;9.380;2023-12-04T13:08:52;174.75;;;48.17;;
62463;SDS011;48512;48.552;9.380;2023-12-04T13:11:19;164.35;;;43.75;;
62463;SDS011;48512;48.552;9.380;2023-12-04T13:13:45;61.40;;;27.70;;
62463;SDS011;48512;48.552;9.380;2023-12-04T13:16:11;68.85;;;27.48;;
62463;SDS011;48512;48.552;9.380;2023-12-04T13:18:37;168.60;;;44.65;;
62463;SDS011;48512;48.552;9.380;2023-12-04T13:21:04;344.52;;;72.50;;
62463;SDS011;48512;48.552;9.380;2023-12-04T13:23:31;164.23;;;45.88;;
62463;SDS011;48512;48.552;9.380;2023-12-04T13:25:57;145.10;;;42.83;;
62463;SDS011;48512;48.552;9.380;2023-12-04T13:28:23;102.00;;;35.28;;
62463;SDS011;48512;48.552;9.380;2023-12-04T13:30:49;126.72;;;40.00;;
62463;SDS011;48512;48.552;9.380;2023-12-04T13:33:16;209.35;;;55.45;;
62463;SDS011;48512;48.552;9.380;2023-12-04T13:35:42;104.60;;;36.67;;
62463;SDS011;48512;48.552;9.380;2023-12-04T13:38:09;293.83;;;67.03;;
62463;SDS011;48512;48.552;9.380;2023-12-04T13:40:39;227.38;;;59.28;;
62463;SDS011;48512;48.552;9.380;2023-12-04T13:43:05;171.10;;;43.30;;
62463;SDS011;48512;48.552;9.380;2023-12-04T13:45:51;68.68;;;29.83;;
62463;SDS011;48512;48.552;9.380;2023-12-04T13:48:18;115.35;;;34.85;;
62463;SDS011;48512;48.552;9.380;2023-12-04T13:50:47;68.32;;;26.90;;
62463;SDS011;48512;48.552;9.380;2023-12-04T13:53:16;71.75;;;29.05;;
62463;SDS011;48512;48.552;9.380;2023-12-04T13:55:45;104.05;;;38.65;;
62463;SDS011;48512;48.552;9.380;2023-12-04T13:58:23;87.10;;;36.90;;
62463;SDS011;48512;48.552;9.380;2023-12-04T14:01:04;52.85;;;26.58;;
62463;SDS011;48512;48.552;9.380;2023-12-04T14:03:41;41.08;;;19.90;;
62463;SDS011;48512;48.552;9.380;2023-12-04T14:06:08;23.35;;;10.93;;
62463;SDS011;48512;48.552;9.380;2023-12-04T14:08:35;23.55;;;11.00;;
62463;SDS011;48512;48.552;9.380;2023-12-04T14:11:04;28.65;;;13.13;;
62463;SDS011;48512;48.552;9.380;2023-12-04T14:13:32;23.95;;;12.15;;
62463;SDS011;48512;48.552;9.380;2023-12-04T14:15:58;30.75;;;14.65;;
62463;SDS011;48512;48.552;9.380;2023-12-04T14:18:24;35.40;;;18.63;;
62463;SDS011;48512;48.552;9.380;2023-12-04T14:20:51;43.15;;;21.00;;
62463;SDS011;48512;48.552;9.380;2023-12-04T14:23:17;52.65;;;26.75;;
62463;SDS011;48512;48.552;9.380;2023-12-04T14:25:45;50.95;;;24.75;;
62463;SDS011;48512;48.552;9.380;2023-12-04T14:28:11;56.13;;;27.85;;
62463;SDS011;48512;48.552;9.380;2023-12-04T14:30:37;63.25;;;29.15;;